createdAt,value
2018-11-01T00:00:42.660Z,7.40
2018-11-01T00:03:10.450Z,7.27
2018-11-01T00:05:38.290Z,7.33
2018-11-01T00:08:06.128Z,7.37
2018-11-01T00:10:33.767Z,8.40
2018-11-01T00:13:01.567Z,6.87
2018-11-01T00:15:29.171Z,7.67
2018-11-01T00:17:56.875Z,7.40
2018-11-01T00:20:24.631Z,7.90
2018-11-01T00:22:52.280Z,7.87
2018-11-01T00:25:19.925Z,7.60
2018-11-01T00:27:47.661Z,8.20
2018-11-01T00:30:15.458Z,7.50
2018-11-01T00:32:43.425Z,7.10
2018-11-01T00:35:11.611Z,8.33
2018-11-01T00:37:39.224Z,7.63
2018-11-01T00:40:11.631Z,7.03
2018-11-01T00:42:39.325Z,6.37
2018-11-01T00:45:07.801Z,6.67
2018-11-01T00:47:41.643Z,6.20
2018-11-01T00:50:11.389Z,4.60
2018-11-01T00:52:39.326Z,4.93
2018-11-01T00:55:07.671Z,3.63
2018-11-01T00:57:35.685Z,3.87
2018-11-01T01:00:03.596Z,2.90
2018-11-01T01:02:32.579Z,3.20
2018-11-01T01:05:00.178Z,2.30
2018-11-01T01:07:28.069Z,2.33
2018-11-01T01:09:55.790Z,2.53
2018-11-01T01:12:23.442Z,2.10
2018-11-01T01:14:51.280Z,2.40
2018-11-01T01:17:19.071Z,2.57
2018-11-01T01:19:46.758Z,2.50
2018-11-01T01:22:14.386Z,2.50
2018-11-01T01:24:42.062Z,2.13
2018-11-01T01:27:09.830Z,2.27
2018-11-01T01:29:38.687Z,2.57
2018-11-01T01:32:06.340Z,2.40
2018-11-01T01:34:34.148Z,2.63
2018-11-01T01:37:01.855Z,2.27
2018-11-01T01:39:29.564Z,2.40
2018-11-01T01:41:57.305Z,2.40
2018-11-01T01:44:24.977Z,2.57
2018-11-01T01:46:52.660Z,2.70
2018-11-01T01:49:20.538Z,2.60
2018-11-01T01:51:48.267Z,2.60
2018-11-01T01:54:15.988Z,3.07
2018-11-01T01:56:44.765Z,2.00
2018-11-01T01:59:12.364Z,2.40
2018-11-01T02:01:40.203Z,2.50
2018-11-01T02:04:07.845Z,2.13
2018-11-01T02:06:35.580Z,2.17
2018-11-01T02:09:04.579Z,1.90
2018-11-01T02:11:32.345Z,1.90
2018-11-01T02:13:59.972Z,2.03
2018-11-01T02:16:27.629Z,2.30
2018-11-01T02:18:55.309Z,2.53
2018-11-01T02:21:23.101Z,2.10
2018-11-01T02:23:50.846Z,1.97
2018-11-01T02:26:18.495Z,1.77
2018-11-01T02:28:46.195Z,1.77
2018-11-01T02:31:13.864Z,2.67
2018-11-01T02:33:41.621Z,2.07
2018-11-01T02:36:09.264Z,2.10
2018-11-01T02:38:36.992Z,2.17
2018-11-01T02:41:04.856Z,2.03
2018-11-01T02:43:32.375Z,1.80
2018-11-01T02:46:01.096Z,2.30
2018-11-01T02:48:28.873Z,1.87
2018-11-01T02:50:56.451Z,2.10
2018-11-01T02:53:24.173Z,2.10
2018-11-01T02:55:52.028Z,2.57
2018-11-01T02:58:19.783Z,2.30
2018-11-01T03:00:47.475Z,2.10
2018-11-01T03:03:15.250Z,2.40
2018-11-01T03:05:43.118Z,1.90
2018-11-01T03:08:10.876Z,2.23
2018-11-01T03:10:38.620Z,2.20
2018-11-01T03:13:06.322Z,1.87
2018-11-01T03:15:34.026Z,2.80
2018-11-01T03:18:01.762Z,2.17
2018-11-01T03:20:29.405Z,2.70
2018-11-01T03:22:57.114Z,2.13
2018-11-01T03:25:24.769Z,2.50
2018-11-01T03:27:52.525Z,2.57
2018-11-01T03:30:20.312Z,2.13
2018-11-01T03:32:48.116Z,2.00
2018-11-01T03:35:15.947Z,1.97
2018-11-01T03:37:43.630Z,1.87
2018-11-01T03:40:11.799Z,5.27
2018-11-01T03:42:40.209Z,25.53
2018-11-01T03:45:09.025Z,13.10
2018-11-01T03:47:36.995Z,9.07
2018-11-01T03:50:05.188Z,17.97
2018-11-01T03:52:33.120Z,18.37
2018-11-01T03:55:00.868Z,11.67
2018-11-01T03:57:28.532Z,6.30
2018-11-01T03:59:56.189Z,4.67
2018-11-01T04:02:24.254Z,3.20
2018-11-01T04:04:51.979Z,2.80
2018-11-01T04:07:20.019Z,4.37
2018-11-01T04:09:48.346Z,9.57
2018-11-01T04:12:16.695Z,6.33
2018-11-01T04:14:45.067Z,4.27
2018-11-01T04:17:12.937Z,20.40
2018-11-01T04:19:40.780Z,34.80
2018-11-01T04:22:08.419Z,23.83
2018-11-01T04:24:37.295Z,13.20
2018-11-01T04:27:06.081Z,8.67
2018-11-01T04:29:35.700Z,4.87
2018-11-01T04:32:04.974Z,4.20
2018-11-01T04:34:32.594Z,2.80
2018-11-01T04:37:00.326Z,2.83
2018-11-01T04:39:28.048Z,2.20
2018-11-01T04:41:55.977Z,2.00
2018-11-01T04:44:23.926Z,2.30
2018-11-01T04:46:51.825Z,2.20
2018-11-01T04:49:19.641Z,2.23
2018-11-01T04:51:47.513Z,2.20
2018-11-01T04:54:15.398Z,2.90
2018-11-01T04:56:43.281Z,2.07
2018-11-01T04:59:11.122Z,2.10
2018-11-01T05:01:38.704Z,1.90
2018-11-01T05:04:06.552Z,1.90
2018-11-01T05:06:34.256Z,2.30
2018-11-01T05:09:02.276Z,1.80
2018-11-01T05:11:29.896Z,1.60
2018-11-01T05:13:57.733Z,1.83
2018-11-01T05:16:25.631Z,1.83
2018-11-01T05:18:53.451Z,1.40
2018-11-01T05:21:21.083Z,1.63
2018-11-01T05:23:48.708Z,1.87
2018-11-01T05:26:16.584Z,1.70
2018-11-01T05:28:44.228Z,2.03
2018-11-01T05:31:11.893Z,1.60
2018-11-01T05:33:39.571Z,2.10
2018-11-01T05:36:07.208Z,1.73
2018-11-01T05:38:37.567Z,2.10
2018-11-01T05:41:06.711Z,2.53
2018-11-01T05:43:34.573Z,1.90
2018-11-01T05:46:02.475Z,1.97
2018-11-01T05:48:30.205Z,1.80
2018-11-01T05:50:58.085Z,2.00
2018-11-01T05:53:25.868Z,2.00
2018-11-01T05:55:53.849Z,2.13
2018-11-01T05:58:21.685Z,2.20
2018-11-01T06:00:49.522Z,1.93
2018-11-01T06:03:17.603Z,2.00
2018-11-01T06:05:45.916Z,1.53
2018-11-01T06:08:18.986Z,1.70
2018-11-01T06:10:47.100Z,1.70
2018-11-01T06:13:14.927Z,2.00
2018-11-01T06:15:42.590Z,2.33
2018-11-01T06:18:10.443Z,1.80
2018-11-01T06:20:38.520Z,1.40
2018-11-01T06:23:06.584Z,1.87
2018-11-01T06:25:35.085Z,1.50
2018-11-01T06:28:03.524Z,1.83
2018-11-01T06:30:31.639Z,19.97
2018-11-01T06:32:59.604Z,71.93
2018-11-01T06:35:30.838Z,52.40
2018-11-01T06:37:59.727Z,42.93
2018-11-01T06:40:27.592Z,21.47
2018-11-01T06:42:55.372Z,11.60
2018-11-01T06:45:23.200Z,7.00
2018-11-01T06:47:51.128Z,3.73
2018-11-01T06:50:19.150Z,2.73
2018-11-01T06:52:47.083Z,3.17
2018-11-01T06:55:15.234Z,2.50
2018-11-01T06:57:43.235Z,2.10
2018-11-01T07:00:13.652Z,2.17
2018-11-01T07:02:42.274Z,2.17
2018-11-01T07:05:10.517Z,2.60
2018-11-01T07:07:38.943Z,1.73
2018-11-01T07:10:08.801Z,1.80
2018-11-01T07:12:36.693Z,2.50
2018-11-01T07:15:05.674Z,1.93
2018-11-01T07:17:33.685Z,1.50
2018-11-01T07:20:01.699Z,1.80
2018-11-01T07:22:29.387Z,1.80
2018-11-01T07:24:57.334Z,2.03
2018-11-01T07:27:25.716Z,1.77
2018-11-01T07:29:53.579Z,2.30
2018-11-01T07:32:21.429Z,2.00
2018-11-01T07:34:49.119Z,1.87
2018-11-01T07:37:17.026Z,2.03
2018-11-01T07:39:44.645Z,1.80
2018-11-01T07:42:12.313Z,2.30
2018-11-01T07:44:40.524Z,2.23
2018-11-01T07:47:08.482Z,27.80
2018-11-01T07:49:36.610Z,34.10
2018-11-01T07:52:04.683Z,20.37
2018-11-01T07:54:32.474Z,11.40
2018-11-01T07:57:00.155Z,8.60
2018-11-01T07:59:28.007Z,6.50
2018-11-01T08:01:55.978Z,4.17
2018-11-01T08:04:24.299Z,3.10
2018-11-01T08:06:53.912Z,2.60
2018-11-01T08:09:21.694Z,2.80
2018-11-01T08:11:49.600Z,2.43
2018-11-01T08:14:17.866Z,2.43
2018-11-01T08:16:45.734Z,2.50
2018-11-01T08:19:13.441Z,2.67
2018-11-01T08:21:41.278Z,1.83
2018-11-01T08:24:09.028Z,2.00
2018-11-01T08:26:36.701Z,2.23
2018-11-01T08:29:04.606Z,2.53
2018-11-01T08:31:32.352Z,2.23
2018-11-01T08:34:00.373Z,3.30
2018-11-01T08:36:28.579Z,2.83
2018-11-01T08:38:56.337Z,3.00
2018-11-01T08:41:24.232Z,2.97
2018-11-01T08:46:45.509Z,14.80
2018-11-01T08:49:13.468Z,10.97
2018-11-01T08:51:42.506Z,8.53
2018-11-01T08:54:10.337Z,7.17
2018-11-01T08:56:38.258Z,8.30
2018-11-01T08:59:06.131Z,6.77
2018-11-01T09:01:35.282Z,5.80
2018-11-01T09:04:12.158Z,4.00
2018-11-01T09:06:42.121Z,3.50
2018-11-01T09:09:10.020Z,2.90
2018-11-01T09:11:38.305Z,2.53
2018-11-01T09:14:06.102Z,3.00
2018-11-01T09:16:33.976Z,2.67
2018-11-01T09:19:01.951Z,2.60
2018-11-01T09:21:29.851Z,2.93
2018-11-01T09:23:59.319Z,2.37
2018-11-01T09:26:26.968Z,2.30
2018-11-01T09:28:54.634Z,12.93
2018-11-01T09:31:23.679Z,37.80
2018-11-01T09:33:51.833Z,23.20
2018-11-01T09:36:30.520Z,14.40
2018-11-01T09:38:58.719Z,9.40
2018-11-01T09:41:32.634Z,5.63
2018-11-01T09:44:00.350Z,5.50
2018-11-01T09:46:28.417Z,4.10
2018-11-01T09:48:56.133Z,3.53
2018-11-01T09:51:24.329Z,3.70
2018-11-01T09:53:52.087Z,3.00
2018-11-01T09:56:19.914Z,2.63
2018-11-01T09:58:47.959Z,2.67
2018-11-01T10:01:22.504Z,2.50
2018-11-01T10:03:50.367Z,2.37
2018-11-01T10:06:18.419Z,2.00
2018-11-01T10:08:50.242Z,2.90
2018-11-01T10:11:18.031Z,2.43
2018-11-01T10:13:46.331Z,2.90
2018-11-01T10:16:16.472Z,2.97
2018-11-01T10:18:47.991Z,3.50
2018-11-01T10:21:17.181Z,3.33
2018-11-01T10:23:47.094Z,2.93
2018-11-01T10:26:14.844Z,3.03
2018-11-01T10:28:42.742Z,3.47
2018-11-01T10:31:10.703Z,3.07
2018-11-01T10:33:39.848Z,2.53
2018-11-01T10:36:07.885Z,2.73
2018-11-01T10:38:35.837Z,2.40
2018-11-01T10:41:03.870Z,2.30
2018-11-01T10:43:32.212Z,2.40
2018-11-01T10:45:59.940Z,3.00
2018-11-01T10:48:28.027Z,2.80
2018-11-01T10:50:55.991Z,2.17
2018-11-01T10:53:25.876Z,2.27
2018-11-01T10:55:57.105Z,2.13
2018-11-01T10:58:26.407Z,19.23
2018-11-01T11:02:02.916Z,58.27
2018-11-01T11:04:31.645Z,31.00
2018-11-01T11:06:59.430Z,23.07
2018-11-01T11:09:28.314Z,14.97
2018-11-01T11:12:02.865Z,11.70
2018-11-01T11:14:31.240Z,6.73
2018-11-01T11:16:59.013Z,5.60
2018-11-01T11:19:28.254Z,4.93
2018-11-01T11:21:56.175Z,3.90
2018-11-01T11:24:24.136Z,3.40
2018-11-01T11:26:52.100Z,2.43
2018-11-01T11:29:20.302Z,2.80
2018-11-01T11:31:48.131Z,2.97
2018-11-01T11:34:16.032Z,2.70
2018-11-01T11:36:44.091Z,2.00
2018-11-01T11:39:12.857Z,2.67
2018-11-01T11:41:42.055Z,2.97
2018-11-01T11:44:10.409Z,4.10
2018-11-01T11:46:38.826Z,3.23
2018-11-01T11:49:06.739Z,3.47
2018-11-01T11:51:34.874Z,3.30
2018-11-01T11:54:03.591Z,3.17
2018-11-01T11:56:31.878Z,2.77
2018-11-01T11:58:59.708Z,2.60
2018-11-01T12:01:27.512Z,2.70
2018-11-01T12:03:55.405Z,2.60
2018-11-01T12:06:23.577Z,3.00
2018-11-01T12:08:51.336Z,2.70
2018-11-01T12:11:19.418Z,2.53
2018-11-01T12:13:47.969Z,2.57
2018-11-01T12:16:15.964Z,2.83
2018-11-01T12:18:44.377Z,11.80
2018-11-01T12:21:12.172Z,31.90
2018-11-01T12:23:39.898Z,23.33
2018-11-01T12:26:09.918Z,15.10
2018-11-01T12:35:38.960Z,4.77
2018-11-01T12:38:06.772Z,4.37
2018-11-01T12:40:34.832Z,3.70
2018-11-01T12:43:02.457Z,3.50
2018-11-01T12:45:30.167Z,3.17
2018-11-01T12:47:58.023Z,2.73
2018-11-01T12:50:25.882Z,3.03
2018-11-01T12:52:56.569Z,2.87
2018-11-01T12:55:24.339Z,2.80
2018-11-01T12:57:52.155Z,3.00
2018-11-01T13:00:19.829Z,2.43
2018-11-01T13:02:47.863Z,2.70
2018-11-01T13:05:15.652Z,2.70
2018-11-01T13:07:43.529Z,2.73
2018-11-01T13:10:13.632Z,2.90
2018-11-01T13:12:42.048Z,2.77
2018-11-01T13:15:12.559Z,3.00
2018-11-01T13:17:40.952Z,3.23
2018-11-01T13:20:09.472Z,3.73
2018-11-01T13:22:38.455Z,4.03
2018-11-01T13:25:07.222Z,3.47
2018-11-01T13:27:35.027Z,2.80
2018-11-01T13:30:03.803Z,2.93
2018-11-01T13:32:31.859Z,3.40
2018-11-01T13:35:00.915Z,2.90
2018-11-01T13:37:29.030Z,2.33
2018-11-01T13:39:56.907Z,3.43
2018-11-01T13:42:24.340Z,3.63
2018-11-01T13:44:52.652Z,3.43
2018-11-01T13:47:20.535Z,2.63
2018-11-01T13:49:52.608Z,3.43
2018-11-01T13:52:20.272Z,3.23
2018-11-01T13:54:49.295Z,3.20
2018-11-01T13:57:18.126Z,3.20
2018-11-01T13:59:47.197Z,3.80
2018-11-01T14:02:15.978Z,3.10
2018-11-01T14:04:43.940Z,3.30
2018-11-01T14:07:11.724Z,3.27
2018-11-01T14:09:39.516Z,3.80
2018-11-01T14:12:07.544Z,3.90
2018-11-01T14:14:35.719Z,4.03
2018-11-01T14:17:06.361Z,3.40
2018-11-01T14:19:39.161Z,3.63
2018-11-01T14:22:07.013Z,3.10
2018-11-01T14:24:34.919Z,3.63
2018-11-01T14:27:02.877Z,4.20
2018-11-01T14:29:31.127Z,3.63
2018-11-01T14:32:09.097Z,3.77
2018-11-01T14:34:37.038Z,4.20
2018-11-01T14:37:04.770Z,4.57
2018-11-01T14:39:36.226Z,4.37
2018-11-01T14:42:04.267Z,4.30
2018-11-01T14:44:36.536Z,4.07
2018-11-01T14:47:04.413Z,5.43
2018-11-01T14:49:32.207Z,6.40
2018-11-01T14:52:02.639Z,6.70
2018-11-01T14:54:31.601Z,5.73
2018-11-01T14:57:01.019Z,5.10
2018-11-01T14:59:28.570Z,5.00
2018-11-01T15:01:55.170Z,5.03
2018-11-01T15:04:23.278Z,5.43
2018-11-01T15:06:55.320Z,13.50
2018-11-01T15:09:23.215Z,23.80
2018-11-01T15:11:51.059Z,16.20
2018-11-01T15:14:19.759Z,11.47
2018-11-01T15:16:48.775Z,7.87
2018-11-01T15:19:16.702Z,6.37
2018-11-01T15:21:44.532Z,5.50
2018-11-01T15:24:14.355Z,5.87
2018-11-01T15:26:42.145Z,5.53
2018-11-01T15:29:11.027Z,4.57
2018-11-01T15:31:38.815Z,4.80
2018-11-01T15:34:07.340Z,5.20
2018-11-01T15:36:34.997Z,4.80
2018-11-01T15:39:03.617Z,5.43
2018-11-01T15:41:31.365Z,6.30
2018-11-01T15:44:00.457Z,7.97
2018-11-01T15:46:33.247Z,7.20
2018-11-01T15:49:01.436Z,18.30
2018-11-01T15:51:29.594Z,30.00
2018-11-01T15:53:57.962Z,28.57
2018-11-01T15:56:27.706Z,78.20
2018-11-01T15:58:55.888Z,138.07
2018-11-01T16:01:23.887Z,24.13
2018-11-01T16:03:52.037Z,9.80
2018-11-01T16:06:19.747Z,7.10
2018-11-01T16:08:47.786Z,6.07
2018-11-01T16:11:17.615Z,5.43
2018-11-01T16:13:45.611Z,5.07
2018-11-01T16:16:13.380Z,5.73
2018-11-01T16:18:41.195Z,5.30
2018-11-01T16:21:08.906Z,5.57
2018-11-01T16:23:36.792Z,6.47
2018-11-01T16:26:06.561Z,8.60
2018-11-01T16:28:34.748Z,9.50
2018-11-01T16:31:08.036Z,8.43
2018-11-01T16:33:40.717Z,9.00
2018-11-01T16:36:08.950Z,14.93
2018-11-01T16:38:38.020Z,15.17
2018-11-01T16:41:07.119Z,10.47
2018-11-01T16:43:37.068Z,7.43
2018-11-01T16:46:11.489Z,6.67
2018-11-01T16:48:40.500Z,5.77
2018-11-01T16:51:13.496Z,5.83
2018-11-01T16:53:41.201Z,4.70
2018-11-01T16:56:08.895Z,4.80
2018-11-01T16:58:36.838Z,4.50
2018-11-01T17:01:04.799Z,5.57
2018-11-01T17:03:32.684Z,4.77
2018-11-01T17:06:01.212Z,5.07
2018-11-01T17:08:29.082Z,4.57
2018-11-01T17:10:58.649Z,5.20
2018-11-01T17:13:26.525Z,4.50
2018-11-01T17:15:54.228Z,5.33
2018-11-01T17:18:22.056Z,4.93
2018-11-01T17:20:49.761Z,4.37
2018-11-01T17:23:17.609Z,4.40
2018-11-01T17:25:45.280Z,4.30
2018-11-01T17:28:13.749Z,4.57
2018-11-01T17:30:42.411Z,4.60
2018-11-01T17:33:10.218Z,4.97
2018-11-01T17:35:39.357Z,4.10
2018-11-01T17:38:07.062Z,4.63
2018-11-01T17:40:34.844Z,5.47
2018-11-01T17:43:02.836Z,6.23
2018-11-01T17:45:30.696Z,5.20
2018-11-01T17:47:58.745Z,5.17
2018-11-01T17:50:27.712Z,5.77
2018-11-01T17:52:55.389Z,4.80
2018-11-01T17:55:24.355Z,4.90
2018-11-01T17:57:52.442Z,5.30
2018-11-01T18:00:20.530Z,49.83
2018-11-01T18:02:50.783Z,38.27
2018-11-01T18:05:19.348Z,16.93
2018-11-01T18:07:48.209Z,10.83
2018-11-01T18:10:21.644Z,7.30
2018-11-01T18:12:49.821Z,5.53
2018-11-01T18:15:17.457Z,5.57
2018-11-01T18:17:45.216Z,4.00
2018-11-01T18:20:13.461Z,4.00
2018-11-01T18:22:41.937Z,4.47
2018-11-01T18:25:11.286Z,4.10
2018-11-01T18:27:41.806Z,4.53
2018-11-01T18:30:13.061Z,4.50
2018-11-01T18:32:42.771Z,4.03
2018-11-01T18:35:12.224Z,3.50
2018-11-01T18:37:44.040Z,3.70
2018-11-01T18:40:15.077Z,4.60
2018-11-01T18:42:43.292Z,4.37
2018-11-01T18:45:12.348Z,4.00
2018-11-01T18:47:40.316Z,4.27
2018-11-01T18:50:10.677Z,3.97
2018-11-01T18:52:38.405Z,4.10
2018-11-01T18:55:08.782Z,4.07
2018-11-01T18:57:36.650Z,4.50
2018-11-01T19:00:08.984Z,3.40
2018-11-01T19:02:37.624Z,3.80
2018-11-01T19:05:07.672Z,4.50
2018-11-01T19:07:36.031Z,4.30
2018-11-01T19:10:04.421Z,3.30
2018-11-01T19:12:32.502Z,4.00
2018-11-01T19:15:01.875Z,3.73
2018-11-01T19:17:30.049Z,4.00
2018-11-01T19:19:58.279Z,3.80
2018-11-01T19:22:26.655Z,4.53
2018-11-01T19:24:54.738Z,3.97
2018-11-01T19:27:22.886Z,4.47
2018-11-01T19:29:51.069Z,3.80
2018-11-01T19:32:20.147Z,3.77
2018-11-01T19:34:48.561Z,4.17
2018-11-01T19:37:18.196Z,3.97
2018-11-01T19:39:47.575Z,4.60
2018-11-01T19:42:15.679Z,4.47
2018-11-01T19:44:43.499Z,4.27
2018-11-01T19:47:11.212Z,4.50
2018-11-01T19:49:40.570Z,4.20
2018-11-01T19:52:08.262Z,4.00
2018-11-01T19:54:36.496Z,5.00
2018-11-01T19:57:04.899Z,4.20
2018-11-01T19:59:32.600Z,4.13
2018-11-01T20:02:00.395Z,3.73
2018-11-01T20:04:28.752Z,4.37
2018-11-01T20:06:58.133Z,4.27
2018-11-01T20:09:26.025Z,4.97
2018-11-01T20:11:54.427Z,4.57
2018-11-01T20:14:24.669Z,4.07
2018-11-01T20:16:53.812Z,5.13
2018-11-01T20:19:21.794Z,4.63
2018-11-01T20:21:49.414Z,4.60
2018-11-01T20:24:17.540Z,4.40
2018-11-01T20:26:45.455Z,4.57
2018-11-01T20:29:13.750Z,4.00
2018-11-01T20:31:41.849Z,5.00
2018-11-01T20:34:10.034Z,4.10
2018-11-01T20:36:37.971Z,5.77
2018-11-01T20:39:08.282Z,5.10
2018-11-01T20:41:36.135Z,37.30
2018-11-01T20:44:04.365Z,36.23
2018-11-01T20:46:32.957Z,15.50
2018-11-01T20:49:00.853Z,8.90
2018-11-01T20:51:29.134Z,7.43
2018-11-01T20:54:03.653Z,6.00
2018-11-01T20:56:31.878Z,5.93
2018-11-01T20:59:00.261Z,5.57
2018-11-01T21:01:28.939Z,5.80
2018-11-01T21:03:57.437Z,4.57
2018-11-01T21:06:26.374Z,4.43
2018-11-01T21:09:00.437Z,4.70
2018-11-01T21:11:28.524Z,5.10
2018-11-01T21:13:56.723Z,4.87
2018-11-01T21:16:25.740Z,4.60
2018-11-01T21:18:53.690Z,4.73
2018-11-01T21:21:21.499Z,4.37
2018-11-01T21:23:49.218Z,4.53
2018-11-01T21:26:17.099Z,4.70
2018-11-01T21:28:44.811Z,4.87
2018-11-01T21:31:12.621Z,5.27
2018-11-01T21:33:40.366Z,4.80
2018-11-01T21:36:07.992Z,5.30
2018-11-01T21:38:35.800Z,5.53
2018-11-01T21:41:03.629Z,5.30
2018-11-01T21:43:31.429Z,5.00
2018-11-01T21:45:59.351Z,5.20
2018-11-01T21:48:27.093Z,4.70
2018-11-01T21:50:54.874Z,4.53
2018-11-01T21:53:22.663Z,4.00
2018-11-01T21:55:54.281Z,5.00
2018-11-01T21:58:21.996Z,4.80
2018-11-01T22:00:51.780Z,5.40
2018-11-01T22:03:19.440Z,4.80
2018-11-01T22:05:48.403Z,4.87
2018-11-01T22:08:16.174Z,5.27
2018-11-01T22:10:43.820Z,4.53
2018-11-01T22:13:11.466Z,4.90
2018-11-01T22:15:40.646Z,4.60
2018-11-01T22:18:08.363Z,4.40
2018-11-01T22:20:36.186Z,4.30
2018-11-01T22:23:03.989Z,4.40
2018-11-01T22:25:31.582Z,3.83
2018-11-01T22:27:59.290Z,4.10
2018-11-01T22:30:26.992Z,3.47
2018-11-01T22:32:55.603Z,3.30
2018-11-01T22:35:23.296Z,3.27
2018-11-01T22:37:50.948Z,3.13
2018-11-01T22:40:18.932Z,2.83
2018-11-01T22:42:46.768Z,3.07
2018-11-01T22:45:14.760Z,3.23
2018-11-01T22:47:42.626Z,3.33
2018-11-01T22:50:11.098Z,3.50
2018-11-01T22:52:39.403Z,3.73
2018-11-01T22:55:13.859Z,3.60
2018-11-01T22:57:41.759Z,3.87
2018-11-01T23:00:11.569Z,3.23
2018-11-01T23:02:39.183Z,3.67
2018-11-01T23:05:07.402Z,3.60
2018-11-01T23:07:35.132Z,3.90
2018-11-01T23:10:03.450Z,3.80
2018-11-01T23:12:31.301Z,3.23
2018-11-01T23:14:59.031Z,3.07
2018-11-01T23:17:33.916Z,3.67
2018-11-01T23:20:01.966Z,3.07
2018-11-01T23:22:29.729Z,2.60
2018-11-01T23:24:57.540Z,2.20
2018-11-01T23:27:25.238Z,2.07
2018-11-01T23:29:52.915Z,2.20
2018-11-01T23:32:20.850Z,1.40
2018-11-01T23:34:48.514Z,1.60
2018-11-01T23:37:25.429Z,1.80
2018-11-01T23:39:58.646Z,1.50
2018-11-01T23:42:32.132Z,1.23
2018-11-01T23:45:06.689Z,1.43
2018-11-01T23:47:40.183Z,1.30
2018-11-01T23:50:19.979Z,1.50
2018-11-01T23:52:51.199Z,1.40
2018-11-01T23:55:18.943Z,1.50
2018-11-01T23:57:47.045Z,1.90
